createdAt,value
2018-06-17T00:00:29.382Z,15.50
2018-06-17T00:02:57.694Z,15.40
2018-06-17T00:05:25.998Z,15.40
2018-06-17T00:07:54.768Z,15.30
2018-06-17T00:10:23.206Z,15.40
2018-06-17T00:12:51.513Z,15.30
2018-06-17T00:15:19.821Z,15.30
2018-06-17T00:17:48.104Z,15.30
2018-06-17T00:20:16.448Z,15.20
2018-06-17T00:22:44.784Z,15.20
2018-06-17T00:25:13.093Z,15.20
2018-06-17T00:27:41.433Z,15.20
2018-06-17T00:30:09.767Z,15.30
2018-06-17T00:32:38.093Z,15.20
2018-06-17T00:35:06.429Z,15.30
2018-06-17T00:37:34.748Z,15.20
2018-06-17T00:40:03.052Z,15.10
2018-06-17T00:42:31.405Z,15.00
2018-06-17T00:44:59.700Z,15.00
2018-06-17T00:47:28.053Z,15.00
2018-06-17T00:49:56.357Z,15.00
2018-06-17T00:54:52.705Z,14.90
2018-06-17T00:57:32.278Z,14.80
2018-06-17T01:00:00.568Z,14.80
2018-06-17T01:02:28.873Z,14.80
2018-06-17T01:04:57.161Z,14.70
2018-06-17T01:07:25.465Z,14.70
2018-06-17T01:09:54.026Z,14.70
2018-06-17T01:12:22.345Z,14.70
2018-06-17T01:14:50.672Z,14.70
2018-06-17T01:17:18.997Z,14.70
2018-06-17T01:19:47.298Z,14.60
2018-06-17T01:22:15.778Z,14.50
2018-06-17T01:24:44.149Z,14.50
2018-06-17T01:27:13.697Z,14.50
2018-06-17T01:29:42.001Z,14.50
2018-06-17T01:32:11.133Z,14.50
2018-06-17T01:34:39.420Z,14.50
2018-06-17T01:37:07.721Z,14.40
2018-06-17T01:39:36.017Z,14.40
2018-06-17T01:42:04.480Z,14.30
2018-06-17T01:44:32.897Z,14.30
2018-06-17T01:47:01.201Z,14.30
2018-06-17T01:49:29.942Z,14.20
2018-06-17T01:51:58.461Z,14.20
2018-06-17T01:54:26.766Z,14.20
2018-06-17T01:56:55.137Z,14.20
2018-06-17T01:59:23.517Z,14.30
2018-06-17T02:01:51.818Z,14.20
2018-06-17T02:04:25.429Z,14.20
2018-06-17T02:06:59.096Z,14.20
2018-06-17T02:09:32.779Z,14.20
2018-06-17T02:12:06.511Z,14.20
2018-06-17T02:14:40.147Z,14.10
2018-06-17T02:17:09.166Z,14.10
2018-06-17T02:19:37.447Z,14.10
2018-06-17T02:22:06.049Z,14.00
2018-06-17T02:24:34.349Z,14.00
2018-06-17T02:27:02.693Z,14.00
2018-06-17T02:29:31.068Z,13.90
2018-06-17T02:31:59.414Z,13.90
2018-06-17T02:34:27.689Z,13.90
2018-06-17T02:36:56.025Z,13.80
2018-06-17T02:39:24.413Z,13.80
2018-06-17T02:41:54.138Z,13.80
2018-06-17T02:44:22.513Z,13.80
2018-06-17T02:46:56.023Z,13.80
2018-06-17T02:49:29.809Z,13.80
2018-06-17T02:52:03.408Z,13.90
2018-06-17T02:54:37.212Z,13.90
2018-06-17T02:57:05.506Z,14.00
2018-06-17T02:59:33.841Z,14.00
2018-06-17T03:02:02.291Z,14.10
2018-06-17T03:04:30.904Z,14.20
2018-06-17T03:06:59.413Z,14.20
2018-06-17T03:09:27.805Z,14.20
2018-06-17T03:11:56.349Z,14.30
2018-06-17T03:14:25.109Z,14.40
2018-06-17T03:16:53.446Z,14.50
2018-06-17T03:19:22.194Z,14.50
2018-06-17T03:21:50.514Z,14.50
2018-06-17T03:24:23.117Z,14.50
2018-06-17T03:26:56.733Z,14.40
2018-06-17T03:29:31.326Z,14.40
2018-06-17T03:32:04.974Z,14.40
2018-06-17T03:34:33.265Z,14.40
2018-06-17T03:37:01.569Z,14.50
2018-06-17T03:39:30.018Z,14.50
2018-06-17T03:41:58.293Z,14.50
2018-06-17T03:44:26.956Z,14.50
2018-06-17T03:46:55.247Z,14.50
2018-06-17T03:49:24.101Z,14.50
2018-06-17T03:51:52.688Z,14.50
2018-06-17T03:54:20.980Z,14.50
2018-06-17T03:56:49.383Z,14.60
2018-06-17T03:59:17.712Z,14.70
2018-06-17T04:01:46.185Z,14.70
2018-06-17T04:04:14.599Z,14.70
2018-06-17T04:06:43.934Z,14.80
2018-06-17T04:09:13.966Z,14.70
2018-06-17T04:11:42.282Z,14.70
2018-06-17T04:14:10.569Z,14.70
2018-06-17T04:16:38.869Z,14.80
2018-06-17T04:19:07.307Z,14.90
2018-06-17T04:21:35.615Z,14.90
2018-06-17T04:24:03.913Z,14.90
2018-06-17T04:26:32.390Z,14.90
2018-06-17T04:29:00.814Z,14.90
2018-06-17T04:31:29.173Z,15.00
2018-06-17T04:33:57.627Z,15.00
2018-06-17T04:36:26.185Z,15.20
2018-06-17T04:38:54.561Z,15.30
2018-06-17T04:41:23.014Z,15.40
2018-06-17T04:43:51.480Z,15.50
2018-06-17T04:46:19.858Z,15.60
2018-06-17T04:48:48.137Z,15.70
2018-06-17T04:51:16.601Z,15.80
2018-06-17T04:56:13.269Z,15.80
2018-06-17T04:58:41.994Z,15.80
2018-06-17T05:01:10.340Z,15.80
2018-06-17T05:03:38.794Z,15.80
2018-06-17T05:06:07.193Z,15.90
2018-06-17T05:11:03.685Z,16.00
2018-06-17T05:13:32.006Z,16.00
2018-06-17T05:16:00.321Z,16.00
2018-06-17T05:18:28.625Z,16.20
2018-06-17T05:20:56.926Z,16.50
2018-06-17T05:23:25.185Z,16.60
2018-06-17T05:25:53.469Z,16.80
2018-06-17T05:28:21.812Z,16.90
2018-06-17T05:30:50.146Z,17.20
2018-06-17T05:33:18.433Z,17.20
2018-06-17T05:35:46.994Z,17.30
2018-06-17T05:38:15.293Z,17.30
2018-06-17T05:40:43.573Z,17.30
2018-06-17T05:43:11.923Z,17.30
2018-06-17T05:45:40.221Z,17.30
2018-06-17T05:48:08.597Z,17.40
2018-06-17T05:50:36.931Z,17.40
2018-06-17T05:53:05.290Z,17.40
2018-06-17T05:55:33.686Z,17.10
2018-06-17T05:58:01.988Z,17.10
2018-06-17T06:00:30.366Z,17.00
2018-06-17T06:02:58.747Z,17.10
2018-06-17T06:05:27.041Z,17.10
2018-06-17T06:07:55.414Z,17.30
2018-06-17T06:10:23.818Z,17.40
2018-06-17T06:12:52.143Z,17.40
2018-06-17T06:15:20.488Z,17.40
2018-06-17T06:17:48.733Z,17.60
2018-06-17T06:20:17.153Z,17.70
2018-06-17T06:22:45.577Z,17.70
2018-06-17T06:25:13.991Z,17.80
2018-06-17T06:27:42.351Z,17.90
2018-06-17T06:30:10.638Z,17.90
2018-06-17T06:32:38.937Z,17.50
2018-06-17T06:35:07.423Z,17.50
2018-06-17T06:37:36.049Z,17.60
2018-06-17T06:40:04.442Z,17.90
2018-06-17T06:42:32.894Z,18.00
2018-06-17T06:45:01.342Z,18.20
2018-06-17T06:47:29.668Z,18.30
2018-06-17T06:49:58.038Z,18.30
2018-06-17T06:52:26.360Z,18.30
2018-06-17T06:54:54.841Z,18.10
2018-06-17T06:57:23.271Z,18.20
2018-06-17T06:59:51.634Z,18.30
2018-06-17T07:02:31.274Z,18.30
2018-06-17T07:05:11.156Z,18.30
2018-06-17T07:07:50.825Z,18.40
2018-06-17T07:10:23.883Z,18.40
2018-06-17T07:12:52.273Z,18.50
2018-06-17T07:15:32.097Z,18.60
2018-06-17T07:18:34.578Z,19.00
2018-06-17T07:21:02.961Z,19.20
2018-06-17T07:23:31.473Z,19.10
2018-06-17T07:26:37.744Z,18.90
2018-06-17T07:29:17.667Z,19.00
2018-06-17T07:31:46.165Z,19.30
2018-06-17T07:34:15.331Z,19.30
2018-06-17T07:36:44.002Z,19.20
2018-06-17T07:41:34.529Z,19.20
2018-06-17T07:44:02.982Z,19.20
2018-06-17T07:46:31.491Z,19.50
2018-06-17T07:49:45.130Z,19.60
2018-06-17T07:52:26.158Z,19.70
2018-06-17T07:54:54.696Z,19.50
2018-06-17T07:57:24.478Z,19.30
2018-06-17T07:59:52.919Z,19.50
2018-06-17T08:02:21.687Z,19.80
2018-06-17T08:04:50.113Z,19.80
2018-06-17T08:07:19.721Z,20.20
2018-06-17T08:09:55.298Z,20.30
2018-06-17T08:12:23.747Z,20.30
2018-06-17T08:14:52.223Z,20.40
2018-06-17T08:17:20.790Z,20.40
2018-06-17T08:19:49.221Z,20.60
2018-06-17T08:22:17.695Z,20.40
2018-06-17T08:24:46.093Z,20.50
2018-06-17T08:27:14.463Z,20.70
2018-06-17T08:29:42.946Z,20.60
2018-06-17T08:32:11.293Z,20.70
2018-06-17T08:34:39.608Z,21.10
2018-06-17T08:37:08.100Z,21.10
2018-06-17T08:39:36.494Z,21.10
2018-06-17T08:42:05.254Z,21.00
2018-06-17T08:44:33.783Z,21.00
2018-06-17T08:47:02.223Z,21.10
2018-06-17T08:49:30.654Z,21.10
2018-06-17T08:51:59.120Z,21.30
2018-06-17T08:54:27.653Z,21.30
2018-06-17T08:56:56.222Z,21.20
2018-06-17T08:59:25.784Z,21.10
2018-06-17T09:01:54.202Z,21.10
2018-06-17T09:04:22.601Z,21.30
2018-06-17T09:06:50.982Z,21.20
2018-06-17T09:09:19.463Z,21.30
2018-06-17T09:11:48.037Z,21.50
2018-06-17T09:14:16.602Z,21.50
2018-06-17T09:16:45.092Z,21.70
2018-06-17T09:19:13.817Z,22.00
2018-06-17T09:21:42.204Z,21.70
2018-06-17T09:24:10.514Z,21.50
2018-06-17T09:26:38.797Z,21.70
2018-06-17T09:29:11.177Z,21.80
2018-06-17T09:31:39.709Z,22.10
2018-06-17T09:34:08.049Z,22.10
2018-06-17T09:36:36.347Z,21.90
2018-06-17T09:39:07.262Z,21.70
2018-06-17T09:41:35.571Z,21.60
2018-06-17T09:44:03.948Z,21.50
2018-06-17T09:46:32.650Z,21.40
2018-06-17T09:49:01.048Z,21.70
2018-06-17T09:51:29.388Z,21.70
2018-06-17T09:53:57.699Z,21.70
2018-06-17T09:56:26.006Z,22.10
2018-06-17T09:58:54.434Z,22.10
2018-06-17T10:01:22.801Z,22.30
2018-06-17T10:03:51.097Z,22.30
2018-06-17T10:06:19.404Z,22.10
2018-06-17T10:27:21.070Z,22.20
2018-06-17T10:29:50.559Z,22.50
2018-06-17T10:32:22.406Z,22.80
2018-06-17T20:33:54.242Z,17.60
2018-06-17T20:36:27.956Z,17.50
2018-06-17T20:39:01.577Z,17.50
2018-06-17T20:41:35.247Z,17.50
2018-06-17T20:44:04.798Z,17.40
2018-06-17T20:46:33.298Z,17.60
2018-06-17T20:49:02.066Z,17.60
2018-06-17T20:51:30.442Z,17.60
2018-06-17T20:53:59.238Z,17.70
2018-06-17T20:56:28.055Z,17.70
2018-06-17T20:58:56.711Z,17.70
2018-06-17T21:01:25.935Z,17.90
2018-06-17T21:03:54.569Z,17.80
2018-06-17T21:06:37.348Z,17.80
2018-06-17T21:09:48.574Z,18.00
2018-06-17T21:12:27.969Z,18.10
2018-06-17T21:15:22.351Z,18.10
2018-06-17T21:17:56.604Z,18.00
2018-06-17T21:20:38.051Z,18.10
2018-06-17T21:26:15.674Z,18.00
2018-06-17T21:28:49.904Z,18.10
2018-06-17T21:31:28.974Z,18.10
2018-06-17T21:34:17.560Z,18.10
2018-06-17T21:37:10.797Z,18.10
2018-06-17T21:39:45.523Z,18.10
2018-06-17T21:42:27.215Z,18.20
2018-06-17T21:45:15.260Z,18.20
2018-06-17T21:57:25.816Z,18.10
2018-06-17T22:07:02.730Z,18.10
2018-06-17T22:09:47.793Z,18.10
2018-06-17T22:12:29.261Z,18.10
2018-06-17T22:17:15.623Z,18.10
2018-06-17T22:19:56.525Z,18.00
2018-06-17T22:22:28.734Z,18.00
2018-06-17T22:25:00.894Z,18.00
2018-06-17T22:27:37.841Z,18.00
2018-06-17T22:32:34.853Z,18.10
2018-06-17T22:35:03.792Z,17.90
2018-06-17T22:37:32.137Z,18.10
2018-06-17T22:40:01.726Z,17.90
2018-06-17T22:42:30.259Z,18.00
2018-06-17T22:44:58.816Z,18.10
2018-06-17T22:47:32.432Z,18.00
2018-06-17T22:50:00.944Z,18.00
2018-06-17T22:52:29.642Z,17.90
2018-06-17T22:54:58.005Z,17.90
2018-06-17T22:57:32.143Z,17.90
2018-06-17T23:00:05.873Z,17.90
2018-06-17T23:02:39.589Z,17.80
2018-06-17T23:05:13.193Z,17.70
2018-06-17T23:07:47.038Z,17.80
2018-06-17T23:10:15.649Z,17.80
2018-06-17T23:12:44.337Z,17.90
2018-06-17T23:15:12.812Z,17.90
2018-06-17T23:17:41.101Z,17.90
2018-06-17T23:20:09.651Z,17.70
2018-06-17T23:22:38.047Z,17.90
2018-06-17T23:25:06.414Z,17.80
2018-06-17T23:27:34.782Z,17.80
2018-06-17T23:30:03.255Z,17.80
2018-06-17T23:32:31.561Z,17.70
2018-06-17T23:34:59.886Z,17.70
2018-06-17T23:37:29.895Z,17.70
2018-06-17T23:39:58.205Z,17.80
2018-06-17T23:42:32.297Z,17.80
2018-06-17T23:45:00.645Z,17.70
2018-06-17T23:47:34.252Z,17.70
2018-06-17T23:50:08.017Z,17.70
2018-06-17T23:52:41.782Z,17.60
2018-06-17T23:55:15.493Z,17.70
2018-06-17T23:57:43.827Z,17.70
